Time;durP1;ratioP1;P1;durP2;ratioP2;P2;SDS_P1;SDS_P2;PMS_P1;PMS_P2;Temp;Humidity;BMP_temperature;BMP_pressure;BME280_temperature;BME280_humidity;BME280_pressure;Samples;Min_cycle;Max_cycle;Signal;HPM_P1;HPM_P2
2021/05/28 00:00:22;;;;;;;0.47;0.40;;;;;;;27.58;28.99;97046.84;4980947;28;20553;-37
2021/05/28 00:02:50;;;;;;;0.50;0.40;;;;;;;27.59;28.99;97045.06;4985602;28;20034;-39
2021/05/28 00:05:15;;;;;;;0.98;0.35;;;;;;;27.58;29.03;97046.84;4979552;28;20437;-36
2021/05/28 00:07:42;;;;;;;0.57;0.22;;;;;;;27.58;28.89;97044.22;4978428;28;20922;-37
2021/05/28 00:10:08;;;;;;;1.77;0.40;;;;;;;27.58;29.00;97049.47;4976028;28;20440;-35
2021/05/28 00:12:33;;;;;;;1.38;0.40;;;;;;;27.57;28.94;97050.41;4975920;28;20029;-39
2021/05/28 00:14:59;;;;;;;0.28;0.20;;;;;;;27.57;28.89;97049.59;4977327;28;20647;-35
2021/05/28 00:17:24;;;;;;;0.77;0.50;;;;;;;27.58;28.93;97051.28;4976112;28;21976;-29
2021/05/28 00:19:49;;;;;;;0.20;0.20;;;;;;;27.57;28.88;97049.59;4980614;28;20049;-36
2021/05/28 00:22:15;;;;;;;0.80;0.40;;;;;;;27.56;28.97;97047.88;4983402;28;20030;-32
2021/05/28 00:24:40;;;;;;;0.43;0.22;;;;;;;27.57;28.99;97055.69;4985054;28;20045;-31
2021/05/28 00:27:06;;;;;;;0.40;0.40;;;;;;;27.57;28.95;97054.84;4982132;28;20618;-33
2021/05/28 00:29:31;;;;;;;0.45;0.28;;;;;;;27.56;28.91;97059.25;4983225;28;20034;-33
2021/05/28 00:31:57;;;;;;;0.52;0.20;;;;;;;27.55;29.00;97065.47;4982119;28;20038;-32
2021/05/28 00:34:22;;;;;;;1.15;0.25;;;;;;;27.56;28.99;97064.53;4972342;28;21043;-38
2021/05/28 00:36:48;;;;;;;1.23;0.45;;;;;;;27.55;28.92;97062.84;4981286;28;20030;-33
2021/05/28 00:39:13;;;;;;;0.63;0.50;;;;;;;27.53;28.96;97070.81;4986141;28;20037;-37
2021/05/28 00:41:39;;;;;;;0.35;0.30;;;;;;;27.53;29.07;97065.53;4982465;28;20033;-29
2021/05/28 00:44:04;;;;;;;1.02;0.50;;;;;;;27.54;28.98;97061.16;4985315;28;20516;-35
2021/05/28 00:46:30;;;;;;;0.82;0.40;;;;;;;27.53;28.96;97062.06;4975524;28;20037;-36
2021/05/28 00:48:55;;;;;;;2.60;0.65;;;;;;;27.52;29.11;97052.47;4983818;28;20041;-35
2021/05/28 00:51:21;;;;;;;0.63;0.45;;;;;;;27.52;28.94;97060.38;4982445;28;20048;-34
2021/05/28 00:53:47;;;;;;;1.20;0.40;;;;;;;27.51;29.02;97056.88;4981253;28;20091;-33
2021/05/28 00:56:13;;;;;;;0.70;0.35;;;;;;;27.51;28.99;97062.13;4983086;28;20037;-37
2021/05/28 00:58:38;;;;;;;1.17;0.43;;;;;;;27.51;29.03;97069.19;4979210;28;20034;-36
2021/05/28 01:01:04;;;;;;;0.68;0.40;;;;;;;27.51;29.06;97061.31;4979284;28;20041;-34
2021/05/28 01:03:29;;;;;;;0.90;0.50;;;;;;;27.51;29.04;97061.31;4991093;28;20408;-34
2021/05/28 01:05:54;;;;;;;0.47;0.40;;;;;;;27.51;29.04;97061.31;4979374;28;20504;-35
2021/05/28 01:08:20;;;;;;;0.57;0.22;;;;;;;27.50;29.10;97067.50;4982201;28;20030;-35
2021/05/28 01:10:46;;;;;;;1.85;0.60;;;;;;;27.50;29.03;97075.41;4980683;28;20338;-37
2021/05/28 01:13:11;;;;;;;0.40;0.30;;;;;;;27.49;29.05;97068.41;4985454;28;20220;-36
2021/05/28 01:15:37;;;;;;;1.05;0.40;;;;;;;27.49;29.02;97078.94;4984690;28;20038;-33
2021/05/28 01:18:03;;;;;;;0.22;0.22;;;;;;;27.49;29.18;97076.31;4982500;28;20672;-36
2021/05/28 01:20:28;;;;;;;0.47;0.40;;;;;;;27.49;29.02;97084.22;4983937;28;20617;-33
2021/05/28 01:22:55;;;;;;;1.65;0.47;;;;;;;27.48;29.13;97087.78;4979117;28;20072;-37
2021/05/28 01:25:21;;;;;;;2.28;0.40;;;;;;;27.47;29.05;97080.84;4980687;28;20032;-36
2021/05/28 01:27:46;;;;;;;1.20;0.45;;;;;;;27.47;29.18;97080.84;4986807;28;20038;-35
2021/05/28 01:30:13;;;;;;;0.30;0.30;;;;;;;27.47;29.20;97075.56;4983650;28;20065;-36
2021/05/28 01:32:38;;;;;;;0.50;0.30;;;;;;;27.46;29.18;97073.88;4984463;28;20262;-31
2021/05/28 01:35:04;;;;;;;0.20;0.20;;;;;;;27.45;29.19;97074.78;4986138;28;20653;-36
2021/05/28 01:37:29;;;;;;;0.43;0.40;;;;;;;27.45;29.10;97073.03;4981186;28;20641;-34
2021/05/28 01:39:55;;;;;;;0.43;0.38;;;;;;;27.46;29.08;97068.63;4977036;28;20033;-34
2021/05/28 01:42:20;;;;;;;1.17;0.40;;;;;;;27.45;29.13;97072.16;4979263;28;20725;-36
2021/05/28 01:44:46;;;;;;;0.55;0.40;;;;;;;27.45;29.14;97078.28;4983931;28;20041;-34
2021/05/28 01:47:11;;;;;;;1.85;0.50;;;;;;;27.45;29.09;97067.75;4983560;28;20569;-38
2021/05/28 01:49:40;;;;;;;0.98;0.55;;;;;;;27.45;29.13;97073.03;4984406;28;20459;-35
2021/05/28 01:52:06;;;;;;;0.90;0.40;;;;;;;27.44;29.11;97066.06;4980089;28;20503;-37
2021/05/28 01:54:37;;;;;;;0.93;0.55;;;;;;;27.44;29.15;97066.06;4994875;28;20092;-38
2021/05/28 01:57:03;;;;;;;1.02;0.40;;;;;;;27.44;29.21;97065.19;4984040;28;20041;-33
2021/05/28 01:59:28;;;;;;;0.43;0.30;;;;;;;27.44;29.21;97059.94;4961611;28;20031;-29
2021/05/28 02:01:53;;;;;;;0.40;0.30;;;;;;;27.44;29.21;97059.94;4982042;28;20582;-34
2021/05/28 02:04:20;;;;;;;1.27;0.40;;;;;;;27.43;29.21;97059.13;4978476;28;20560;-35
2021/05/28 02:06:45;;;;;;;1.27;0.30;;;;;;;27.43;29.17;97064.38;4983569;28;20033;-37
2021/05/28 02:09:11;;;;;;;0.55;0.32;;;;;;;27.43;29.13;97059.13;4985318;28;20021;-32
2021/05/28 02:11:36;;;;;;;1.17;0.35;;;;;;;27.42;29.13;97057.38;4981964;28;20045;-35
2021/05/28 02:14:02;;;;;;;1.17;0.40;;;;;;;27.43;29.17;97063.50;4977424;28;20527;-33
2021/05/28 02:16:27;;;;;;;0.55;0.30;;;;;;;27.42;29.27;97061.81;4982756;28;20064;-34
2021/05/28 02:18:52;;;;;;;1.38;0.50;;;;;;;27.42;29.20;97059.19;4960843;28;20034;-39
2021/05/28 02:21:18;;;;;;;1.10;0.40;;;;;;;27.42;29.31;97061.81;4979240;28;20037;-34
2021/05/28 02:23:43;;;;;;;2.15;0.55;;;;;;;27.42;29.26;97067.09;4980002;28;20659;-36
2021/05/28 02:26:09;;;;;;;0.60;0.50;;;;;;;27.42;29.21;97064.44;4985939;28;20435;-35
2021/05/28 02:28:34;;;;;;;0.73;0.28;;;;;;;27.41;29.15;97065.41;4981375;28;20068;-34
2021/05/28 02:30:59;;;;;;;1.65;0.40;;;;;;;27.42;29.21;97064.44;4985898;28;20049;-31
2021/05/28 02:33:25;;;;;;;2.97;0.45;;;;;;;27.42;29.15;97064.44;4983917;28;20705;-34
2021/05/28 02:35:50;;;;;;;3.72;0.32;;;;;;;27.42;29.13;97072.34;4983666;28;20033;-39
2021/05/28 02:38:16;;;;;;;0.65;0.40;;;;;;;27.39;29.26;97074.19;4980084;28;20084;-36
2021/05/28 02:40:41;;;;;;;0.40;0.40;;;;;;;27.40;29.17;97080.31;4983868;28;20555;-35
2021/05/28 02:43:06;;;;;;;4.35;0.80;;;;;;;27.41;29.26;97081.19;4982601;28;20050;-37
2021/05/28 02:45:32;;;;;;;1.63;0.50;;;;;;;27.40;29.19;97069.81;4983977;28;20045;-37
2021/05/28 02:47:58;;;;;;;1.90;0.40;;;;;;;27.39;29.21;97071.56;4981218;28;20034;-34
2021/05/28 02:50:25;;;;;;;0.40;0.30;;;;;;;27.39;29.30;97071.56;4977673;28;20757;-31
2021/05/28 02:52:51;;;;;;;1.17;0.45;;;;;;;27.39;29.32;97070.75;4980479;28;20644;-35
2021/05/28 02:55:16;;;;;;;0.73;0.40;;;;;;;27.39;29.32;97073.38;4966985;28;20034;-37
2021/05/28 02:57:42;;;;;;;0.47;0.35;;;;;;;27.38;29.54;97072.50;4979924;28;20513;-38
2021/05/28 03:00:07;;;;;;;1.50;0.50;;;;;;;27.38;29.22;97069.88;4985967;28;20084;-38
2021/05/28 03:02:33;;;;;;;3.03;0.30;;;;;;;27.39;29.27;97068.09;4979357;28;20034;-36
2021/05/28 03:04:58;;;;;;;0.65;0.32;;;;;;;27.39;29.25;97068.94;4985471;28;20025;-37
2021/05/28 03:07:24;;;;;;;2.10;0.45;;;;;;;27.39;29.29;97065.47;4974550;28;20120;-35
2021/05/28 03:09:49;;;;;;;0.75;0.40;;;;;;;27.38;29.25;97061.97;4981913;28;20097;-35
2021/05/28 03:12:15;;;;;;;3.05;0.50;;;;;;;27.38;29.19;97067.25;4982230;28;20022;-37
2021/05/28 03:14:40;;;;;;;0.82;0.30;;;;;;;27.37;29.29;97062.94;4983263;28;20439;-30
2021/05/28 03:17:05;;;;;;;1.33;0.32;;;;;;;27.37;29.30;97062.94;4982560;28;20030;-36
2021/05/28 03:19:42;;;;;;;2.33;0.50;;;;;;;27.37;29.31;97055.03;4978910;28;20034;-37
2021/05/28 03:24:41;;;;;;;0.60;0.30;;;;;;;27.30;29.25;97044.94;4980565;28;20609;-38
2021/05/28 03:27:06;;;;;;;0.57;0.40;;;;;;;27.37;29.39;97049.75;4981057;28;20550;-35
2021/05/28 03:29:32;;;;;;;0.60;0.40;;;;;;;27.37;29.37;97057.66;4980083;28;20045;-37
2021/05/28 03:31:57;;;;;;;0.98;0.30;;;;;;;27.36;29.41;97058.59;4980992;28;20065;-34
2021/05/28 03:34:22;;;;;;;0.52;0.38;;;;;;;27.37;29.23;97056.81;4978649;28;20519;-38
2021/05/28 03:36:48;;;;;;;2.30;0.40;;;;;;;27.36;29.27;97058.59;4979302;28;20131;-38
2021/05/28 03:39:14;;;;;;;1.48;0.60;;;;;;;27.37;29.30;97055.03;4983561;28;20038;-39
2021/05/28 03:41:39;;;;;;;0.90;0.50;;;;;;;27.37;29.35;97056.81;4986637;28;20094;-38
2021/05/28 03:44:05;;;;;;;1.42;0.47;;;;;;;27.36;29.30;97060.38;4988356;28;20038;-38
2021/05/28 03:46:30;;;;;;;0.70;0.30;;;;;;;27.35;29.27;97056.88;4987122;28;20018;-35
2021/05/28 03:48:56;;;;;;;0.75;0.35;;;;;;;27.35;29.25;97061.31;4989192;28;20099;-38
2021/05/28 03:51:21;;;;;;;1.25;0.47;;;;;;;27.35;29.38;97056.88;4985188;28;20038;-35
2021/05/28 03:53:47;;;;;;;3.70;0.50;;;;;;;27.35;29.47;97061.31;4984641;28;20022;-35
2021/05/28 03:56:15;;;;;;;0.55;0.30;;;;;;;27.34;29.33;97055.19;4978657;28;20104;-39
2021/05/28 03:58:40;;;;;;;0.68;0.40;;;;;;;27.34;29.39;97063.09;4978755;28;20535;-38
2021/05/28 04:01:05;;;;;;;1.45;0.60;;;;;;;27.34;29.43;97059.63;4980008;28;20092;-36
2021/05/28 04:03:31;;;;;;;6.07;0.43;;;;;;;27.33;29.32;97058.75;4984484;28;20026;-34
2021/05/28 04:05:56;;;;;;;4.97;0.65;;;;;;;27.34;29.35;97060.47;4987217;28;20038;-37
2021/05/28 04:08:22;;;;;;;2.63;0.47;;;;;;;27.33;29.39;97061.41;4987399;28;20100;-31
2021/05/28 04:10:47;;;;;;;4.07;0.90;;;;;;;27.33;29.42;97061.41;4981640;28;20045;-36
2021/05/28 04:13:13;;;;;;;1.00;0.40;;;;;;;27.33;29.41;97057.91;4981666;28;20027;-36
2021/05/28 04:15:39;;;;;;;2.25;0.65;;;;;;;27.32;29.43;97059.72;4969760;28;20038;-35
2021/05/28 04:18:04;;;;;;;0.60;0.40;;;;;;;27.31;29.46;97057.97;4986836;28;20030;-36
2021/05/28 04:20:30;;;;;;;1.30;0.63;;;;;;;27.33;29.41;97048.25;4980764;28;20091;-31
2021/05/28 04:22:55;;;;;;;4.03;0.50;;;;;;;27.34;29.46;97054.38;4980892;28;20037;-37
2021/05/28 04:25:20;;;;;;;6.68;0.68;;;;;;;27.33;29.46;97052.63;4983872;28;20041;-35
2021/05/28 04:27:46;;;;;;;1.35;0.50;;;;;;;27.31;29.46;97052.72;4985034;28;20036;-37
2021/05/28 04:30:12;;;;;;;1.95;0.63;;;;;;;27.31;29.43;97065.88;4984084;28;20033;-33
2021/05/28 04:32:37;;;;;;;2.40;0.50;;;;;;;27.29;29.51;97064.25;4976586;28;20028;-35
2021/05/28 04:35:03;;;;;;;1.48;0.50;;;;;;;27.29;29.52;97062.50;4982572;28;20026;-36
2021/05/28 04:37:29;;;;;;;1.67;0.40;;;;;;;27.30;29.50;97069.44;4982709;28;20037;-32
2021/05/28 04:39:54;;;;;;;2.35;0.60;;;;;;;27.29;29.47;97078.28;4984843;28;20471;-36
2021/05/28 04:42:19;;;;;;;1.58;0.50;;;;;;;27.30;29.58;97076.50;4987201;28;20397;-35
2021/05/28 04:44:45;;;;;;;3.28;0.70;;;;;;;27.28;29.47;97081.84;4987959;28;20041;-34
2021/05/28 04:47:10;;;;;;;0.25;0.25;;;;;;;27.31;29.59;97078.22;4983386;28;20038;-37
2021/05/28 04:49:36;;;;;;;2.15;0.50;;;;;;;27.29;29.58;97080.91;4984456;28;20034;-36
2021/05/28 04:52:01;;;;;;;1.38;0.60;;;;;;;27.28;29.52;97073.97;4985235;28;20504;-30
2021/05/28 04:54:29;;;;;;;2.47;0.50;;;;;;;27.29;29.49;97078.28;4986996;28;20034;-35
2021/05/28 04:56:54;;;;;;;3.90;0.63;;;;;;;27.29;29.61;97078.28;4980831;28;20034;-34
2021/05/28 04:59:20;;;;;;;0.65;0.32;;;;;;;27.29;29.50;97080.91;4985487;28;20022;-34
2021/05/28 05:01:45;;;;;;;0.77;0.50;;;;;;;27.29;29.52;97088.81;4979834;28;20038;-32
2021/05/28 05:04:10;;;;;;;0.93;0.50;;;;;;;27.30;29.46;97082.59;4979571;28;20975;-33
2021/05/28 05:06:36;;;;;;;3.88;0.63;;;;;;;27.29;29.55;97086.19;4980952;28;20649;-36
2021/05/28 05:09:01;;;;;;;0.75;0.47;;;;;;;27.29;29.69;97090.56;4970301;28;20026;-36
2021/05/28 05:11:27;;;;;;;0.68;0.32;;;;;;;27.30;29.53;97093.13;4982719;28;20031;-33
2021/05/28 05:13:52;;;;;;;1.98;0.60;;;;;;;27.29;29.49;97088.81;4983761;28;20027;-37
2021/05/28 05:16:18;;;;;;;2.55;0.80;;;;;;;27.29;29.53;97094.06;4983383;28;20053;-37
2021/05/28 05:18:45;;;;;;;2.47;0.45;;;;;;;27.29;29.60;97088.81;4982503;28;20048;-37
2021/05/28 05:21:10;;;;;;;1.50;0.50;;;;;;;27.31;29.63;97094.81;4981075;28;20084;-34
2021/05/28 05:23:36;;;;;;;1.02;0.32;;;;;;;27.30;29.59;97095.75;4977222;28;20799;-38
2021/05/28 05:26:01;;;;;;;2.92;0.50;;;;;;;27.29;29.56;97094.06;4980035;28;20026;-33
2021/05/28 05:28:26;;;;;;;2.22;0.60;;;;;;;27.29;29.51;97099.34;4980385;28;20038;-38
2021/05/28 05:30:52;;;;;;;2.47;0.80;;;;;;;27.29;29.51;97094.06;4984929;28;20092;-38
2021/05/28 05:33:17;;;;;;;2.22;0.60;;;;;;;27.30;29.67;97101.03;4964852;28;20019;-33
2021/05/28 05:35:43;;;;;;;5.20;0.70;;;;;;;27.30;29.62;97094.94;4983968;28;20040;-38
2021/05/28 05:38:08;;;;;;;4.70;0.50;;;;;;;27.30;29.62;97101.03;4981155;28;20751;-36
2021/05/28 05:40:35;;;;;;;0.63;0.47;;;;;;;27.30;29.56;97105.47;4978370;28;20045;-37
2021/05/28 05:43:00;;;;;;;1.92;0.63;;;;;;;27.29;29.69;97112.50;4981720;28;20038;-35
2021/05/28 05:45:26;;;;;;;6.35;0.60;;;;;;;27.29;29.78;97115.13;4983004;28;20096;-33
2021/05/28 05:47:51;;;;;;;0.95;0.50;;;;;;;27.29;29.67;97114.25;4965725;28;20034;-35
2021/05/28 05:50:17;;;;;;;9.43;0.75;;;;;;;27.29;29.71;97115.13;4985311;28;20038;-35
2021/05/28 05:52:42;;;;;;;3.38;0.60;;;;;;;27.29;29.71;97120.38;4981849;28;20034;-36
2021/05/28 05:55:08;;;;;;;2.53;0.50;;;;;;;27.25;29.68;97113.59;4979393;28;20260;-33
2021/05/28 05:57:34;;;;;;;0.63;0.40;;;;;;;27.29;29.69;97120.38;4981241;28;20029;-37
2021/05/28 05:59:59;;;;;;;1.67;0.45;;;;;;;27.29;29.73;97125.66;4987719;28;20109;-32
2021/05/28 06:02:27;;;;;;;3.17;0.40;;;;;;;27.30;29.62;97126.50;4977094;28;20049;-34
2021/05/28 06:04:52;;;;;;;3.42;0.50;;;;;;;27.29;29.63;97125.66;4982306;28;20544;-35
2021/05/28 06:07:17;;;;;;;0.88;0.30;;;;;;;27.28;29.74;97121.31;4981537;28;20034;-33
2021/05/28 06:09:43;;;;;;;1.50;0.55;;;;;;;27.29;29.64;97128.28;4987108;28;20033;-30
2021/05/28 06:12:08;;;;;;;1.00;0.32;;;;;;;27.29;29.64;97133.53;4983930;28;20029;-37
2021/05/28 06:14:34;;;;;;;1.98;0.60;;;;;;;27.26;29.64;97126.66;4980610;28;20127;-37
2021/05/28 06:16:59;;;;;;;0.63;0.32;;;;;;;27.29;29.61;97136.16;4980681;28;20748;-34
2021/05/28 06:19:24;;;;;;;0.70;0.40;;;;;;;27.29;29.60;97138.81;4983813;28;20034;-38
2021/05/28 06:21:51;;;;;;;3.85;0.80;;;;;;;27.29;29.66;97141.44;4978166;28;20248;-37
2021/05/28 06:24:16;;;;;;;1.95;0.50;;;;;;;27.30;29.67;97137.03;4978235;28;20064;-38
2021/05/28 06:26:41;;;;;;;0.80;0.40;;;;;;;27.29;29.61;97138.81;4978915;28;20030;-35
2021/05/28 06:29:07;;;;;;;3.28;0.65;;;;;;;27.25;29.60;97129.38;4975968;28;20378;-34
2021/05/28 06:31:34;;;;;;;1.27;0.57;;;;;;;27.29;29.57;97130.91;4977964;28;20274;-31
2021/05/28 06:34:00;;;;;;;15.55;1.70;;;;;;;27.30;29.70;97137.03;4980022;28;20094;-34
2021/05/28 06:36:25;;;;;;;14.15;2.00;;;;;;;27.29;30.01;97138.81;4981321;28;20392;-38
2021/05/28 06:38:50;;;;;;;4.68;1.25;;;;;;;27.29;30.06;97146.69;4984912;28;20442;-36
2021/05/28 06:41:16;;;;;;;1.48;0.55;;;;;;;27.29;30.01;97146.69;4984076;28;20029;-36
2021/05/28 06:43:41;;;;;;;1.13;0.50;;;;;;;27.30;29.79;97144.94;4975812;28;20026;-34
2021/05/28 06:46:07;;;;;;;3.30;0.68;;;;;;;27.29;29.73;97151.09;4977402;28;20591;-31
2021/05/28 06:48:32;;;;;;;3.40;0.77;;;;;;;27.29;29.69;97151.09;4977933;28;20093;-32
2021/05/28 06:50:58;;;;;;;4.32;0.77;;;;;;;27.29;29.66;97144.06;4977326;28;20041;-31
2021/05/28 06:53:23;;;;;;;6.70;0.90;;;;;;;27.30;29.60;97148.38;4993095;28;22187;-36
2021/05/28 06:55:48;;;;;;;3.40;0.85;;;;;;;27.31;29.64;97155.34;4976646;28;20034;-34
2021/05/28 06:58:16;;;;;;;4.35;0.80;;;;;;;27.31;29.51;97150.09;4975066;28;20034;-33
2021/05/28 07:00:41;;;;;;;2.45;0.70;;;;;;;27.31;29.44;97150.09;4977388;28;20030;-31
2021/05/28 07:03:06;;;;;;;5.00;0.60;;;;;;;27.33;29.42;97152.63;4975525;28;20109;-37
2021/05/28 07:05:32;;;;;;;4.30;0.70;;;;;;;27.33;29.46;97153.50;4977605;28;20042;-37
2021/05/28 07:07:58;;;;;;;2.83;1.00;;;;;;;27.35;29.59;97161.31;4977854;28;20022;-34
2021/05/28 07:10:24;;;;;;;3.53;0.95;;;;;;;27.35;29.51;97156.88;4976644;28;20033;-35
2021/05/28 07:12:51;;;;;;;2.85;1.02;;;;;;;27.36;29.40;97158.59;4975492;28;20061;-34
2021/05/28 07:15:18;;;;;;;2.25;0.80;;;;;;;27.37;29.51;97160.28;4979480;28;20096;-33
2021/05/28 07:17:44;;;;;;;2.65;0.70;;;;;;;27.38;29.48;97158.50;4984936;28;20030;-35
2021/05/28 07:20:10;;;;;;;1.77;0.77;;;;;;;27.38;29.52;97164.63;4984396;28;20037;-36
2021/05/28 07:22:36;;;;;;;2.45;0.90;;;;;;;27.39;29.43;97168.94;4982900;28;20022;-35
2021/05/28 07:25:01;;;;;;;1.95;0.80;;;;;;;27.42;29.38;97167.09;4980557;28;20045;-37
2021/05/28 07:27:26;;;;;;;2.72;0.82;;;;;;;27.41;29.29;97171.50;4980840;28;20022;-34
2021/05/28 07:29:52;;;;;;;3.22;0.80;;;;;;;27.42;29.54;97161.84;4983266;28;20917;-39
2021/05/28 07:32:17;;;;;;;0.93;0.68;;;;;;;27.43;29.34;97174.06;5000971;28;20041;-35
2021/05/28 07:34:43;;;;;;;0.80;0.50;;;;;;;27.45;29.42;97161.66;4969147;28;20120;-35
2021/05/28 07:37:08;;;;;;;2.50;0.80;;;;;;;27.45;29.59;97161.66;4983984;28;20026;-38
2021/05/28 07:39:35;;;;;;;3.33;0.80;;;;;;;27.46;29.45;97163.38;4982622;28;20860;-39
2021/05/28 07:42:01;;;;;;;4.60;0.80;;;;;;;27.47;29.44;97165.06;4979795;28;20321;-34
2021/05/28 07:44:27;;;;;;;2.38;0.80;;;;;;;27.47;29.50;97155.38;4979472;28;20480;-34
2021/05/28 07:46:52;;;;;;;3.17;0.75;;;;;;;27.49;29.52;97160.53;4978918;28;20065;-35
2021/05/28 07:49:18;;;;;;;2.15;0.70;;;;;;;27.49;29.52;97157.91;4978828;28;20266;-35
2021/05/28 07:51:46;;;;;;;3.13;0.75;;;;;;;27.49;29.48;97153.50;4979914;28;20591;-34
2021/05/28 07:54:12;;;;;;;0.88;0.57;;;;;;;27.50;29.54;97164.91;4980078;28;20027;-33
2021/05/28 07:56:37;;;;;;;2.65;0.93;;;;;;;27.52;29.56;97163.03;4979967;28;20734;-34
2021/05/28 07:59:03;;;;;;;5.43;2.47;;;;;;;27.49;28.11;97163.19;4978935;28;20034;-38
2021/05/28 08:01:28;;;;;;;5.50;1.45;;;;;;;27.49;28.51;97164.03;4977570;28;20460;-35
2021/05/28 08:03:55;;;;;;;1.85;1.00;;;;;;;27.47;28.80;97163.28;4978062;28;20084;-34
2021/05/28 08:06:21;;;;;;;43.00;2.70;;;;;;;27.47;28.59;97160.66;4980249;28;20040;-32
2021/05/28 08:08:46;;;;;;;8.25;2.40;;;;;;;27.44;26.75;97159.94;4979868;28;20038;-37
2021/05/28 08:11:12;;;;;;;7.78;2.67;;;;;;;27.31;26.08;97155.34;4979195;28;20079;-28
2021/05/28 08:13:37;;;;;;;8.93;3.33;;;;;;;27.19;25.23;97162.13;4983013;28;20211;-30
2021/05/28 08:16:03;;;;;;;8.70;3.30;;;;;;;27.03;25.12;97159.44;4983717;28;20144;-32
2021/05/28 08:18:29;;;;;;;6.93;3.30;;;;;;;26.82;24.94;97159.63;4980804;28;20433;-30
2021/05/28 08:20:55;;;;;;;12.13;3.10;;;;;;;26.63;25.35;97164.09;4981700;28;20026;-35
2021/05/28 08:23:21;;;;;;;10.38;3.10;;;;;;;26.50;25.75;97161.25;4981811;28;20056;-35
2021/05/28 08:25:49;;;;;;;7.47;2.50;;;;;;;26.40;26.16;97159.09;4977683;28;20034;-34
2021/05/28 08:28:14;;;;;;;5.00;2.40;;;;;;;26.37;26.45;97158.38;4980898;28;20426;-34
2021/05/28 08:30:40;;;;;;;11.40;2.33;;;;;;;26.35;26.71;97164.56;4978977;28;20034;-31
2021/05/28 08:33:07;;;;;;;5.80;2.28;;;;;;;26.37;26.96;97155.75;4982669;28;20026;-37
2021/05/28 08:35:33;;;;;;;10.18;3.30;;;;;;;26.40;27.31;97160.88;4982377;28;20030;-35
2021/05/28 08:37:58;;;;;;;14.07;3.22;;;;;;;26.44;27.53;97154.53;4981545;28;20028;-31
2021/05/28 08:40:25;;;;;;;10.07;3.08;;;;;;;26.48;27.43;97156.91;4982204;28;20034;-36
2021/05/28 08:42:51;;;;;;;14.20;3.35;;;;;;;26.53;27.68;97150.56;4982502;28;20033;-34
2021/05/28 08:45:17;;;;;;;12.38;2.92;;;;;;;26.58;27.72;97153.84;4980108;28;20044;-38
2021/05/28 08:47:43;;;;;;;11.73;3.00;;;;;;;26.61;27.88;97157.16;4980698;28;20034;-38
2021/05/28 08:50:09;;;;;;;9.05;3.00;;;;;;;26.67;27.75;97157.78;4975374;28;20161;-35
2021/05/28 08:52:34;;;;;;;9.90;3.13;;;;;;;26.72;27.89;97158.38;4979384;28;20030;-34
2021/05/28 08:54:59;;;;;;;8.38;2.85;;;;;;;26.76;27.89;97159.94;4980685;28;20034;-36
2021/05/28 08:57:25;;;;;;;8.50;2.38;;;;;;;26.79;27.95;97146.63;4980853;28;20033;-34
2021/05/28 08:59:51;;;;;;;6.72;2.33;;;;;;;26.84;28.17;97152.50;4959847;28;20876;-37
2021/05/28 09:02:35;;;;;;;10.68;2.70;;;;;;;26.88;27.96;97148.78;4978318;28;20054;-36
2021/05/28 09:05:14;;;;;;;7.32;2.83;;;;;;;26.92;28.07;97148.63;4980873;28;20037;-36
2021/05/28 09:07:40;;;;;;;6.65;2.28;;;;;;;26.95;28.13;97148.47;4981774;28;20426;-34
2021/05/28 09:10:34;;;;;;;5.28;2.25;;;;;;;26.94;27.24;97145.03;4971424;28;20951;-38
2021/05/28 09:13:19;;;;;;;7.30;2.53;;;;;;;26.92;26.50;97149.47;3946978;28;10001581;-34
2021/05/28 09:16:02;;;;;;;5.65;2.58;;;;;;;26.92;26.22;97153.88;4978404;28;20033;-39
2021/05/28 09:18:39;;;;;;;4.07;2.25;;;;;;;26.91;25.41;97152.16;4976038;28;20695;-38
2021/05/28 09:21:05;;;;;;;6.63;2.70;;;;;;;26.92;25.40;97148.63;4978735;28;20609;-36
2021/05/28 09:23:30;;;;;;;4.40;2.45;;;;;;;26.96;25.82;97155.47;4975330;28;20030;-33
2021/05/28 09:26:03;;;;;;;5.05;2.10;;;;;;;27.02;26.44;97157.75;4962311;28;20132;-35
2021/05/28 09:28:35;;;;;;;5.75;2.50;;;;;;;27.07;26.35;97155.72;4634121;28;9999849;-35
2021/05/28 09:31:02;;;;;;;5.97;2.83;;;;;;;27.16;26.26;97153.53;4964736;28;20961;-36
2021/05/28 09:33:31;;;;;;;4.75;2.35;;;;;;;27.22;25.90;97155.84;4976421;28;20052;-39
2021/05/28 09:36:05;;;;;;;4.80;2.72;;;;;;;27.28;25.79;97155.53;4977746;28;20684;-38
2021/05/28 09:38:31;;;;;;;5.63;2.70;;;;;;;27.34;25.75;97155.19;4979620;28;20042;-36
2021/05/28 09:40:56;;;;;;;5.65;2.50;;;;;;;27.39;25.69;97158.41;4983099;28;20034;-37
2021/05/28 09:43:23;;;;;;;3.50;1.88;;;;;;;27.45;26.02;97151.13;4981202;28;20577;-39
2021/05/28 09:45:49;;;;;;;6.13;2.45;;;;;;;27.51;25.41;97156.06;4998472;28;20084;-34
2021/05/28 09:48:14;;;;;;;5.60;2.45;;;;;;;27.55;25.46;97154.09;4984147;28;20034;-39
2021/05/28 09:50:49;;;;;;;4.47;2.50;;;;;;;27.60;25.35;97159.97;4980795;28;20778;-37
2021/05/28 09:53:32;;;;;;;4.55;1.75;;;;;;;27.67;25.73;97149.97;4979624;28;20049;-41
2021/05/28 09:55:58;;;;;;;3.20;1.50;;;;;;;27.71;26.03;97147.09;4976426;28;20041;-36
2021/05/28 09:58:24;;;;;;;3.25;1.27;;;;;;;27.81;26.30;97152.72;4978603;28;20080;-39
2021/05/28 10:00:52;;;;;;;4.57;1.70;;;;;;;27.88;26.37;97148.78;4962951;28;20046;-41
2021/05/28 10:03:22;;;;;;;3.80;1.70;;;;;;;27.98;26.20;97140.34;4979388;28;20495;-41
2021/05/28 10:05:52;;;;;;;3.03;1.50;;;;;;;28.08;26.45;97144.19;4981267;28;20034;-34
2021/05/28 10:08:19;;;;;;;3.63;1.42;;;;;;;28.18;26.25;97150.63;4979552;28;20476;-34
2021/05/28 10:10:49;;;;;;;5.50;1.50;;;;;;;28.29;26.16;97147.41;4977946;28;20034;-34
2021/05/28 10:13:15;;;;;;;2.95;1.52;;;;;;;28.43;26.03;97143.97;4976682;28;20578;-39
2021/05/28 10:15:45;;;;;;;5.38;1.52;;;;;;;28.55;25.98;97139.75;4980704;28;20034;-34
2021/05/28 10:18:11;;;;;;;2.55;1.27;;;;;;;28.68;25.94;97137.22;4979068;28;20045;-38
2021/05/28 10:20:38;;;;;;;1.80;1.15;;;;;;;28.82;25.85;97127.63;4976736;28;20034;-38
2021/05/28 10:23:04;;;;;;;3.08;1.38;;;;;;;28.92;25.85;97131.44;4975826;28;20073;-39
2021/05/28 10:25:29;;;;;;;3.10;1.40;;;;;;;29.03;25.59;97136.03;4974759;28;20638;-35
2021/05/28 10:28:00;;;;;;;5.18;1.60;;;;;;;29.13;25.40;97131.06;4975774;28;20030;-31
2021/05/28 10:30:27;;;;;;;2.88;1.38;;;;;;;29.24;25.53;97132.19;4977550;28;20052;-35
2021/05/28 10:33:23;;;;;;;2.03;1.30;;;;;;;29.33;25.30;97131.63;4974318;28;20524;-34
2021/05/28 10:35:58;;;;;;;2.40;1.33;;;;;;;29.42;25.47;97133.69;4976762;28;20038;-36
2021/05/28 10:38:29;;;;;;;2.72;1.33;;;;;;;29.51;25.12;97136.66;4976320;28;20040;-33
2021/05/28 10:41:04;;;;;;;1.92;1.15;;;;;;;29.57;25.05;97125.75;4975176;28;20651;-35
2021/05/28 10:43:30;;;;;;;2.65;1.27;;;;;;;29.64;25.15;97137.66;4971720;28;20065;-35
2021/05/28 10:46:05;;;;;;;5.03;1.40;;;;;;;29.69;25.35;97127.63;4974794;28;20501;-34
2021/05/28 10:48:36;;;;;;;2.63;1.48;;;;;;;29.76;25.21;97127.22;4977140;28;20034;-38
2021/05/28 10:51:01;;;;;;;4.38;1.60;;;;;;;29.81;25.13;97135.69;4977198;28;20028;-35
2021/05/28 10:53:27;;;;;;;1.75;1.25;;;;;;;29.85;25.11;97138.06;4982173;28;20022;-39
2021/05/28 10:56:02;;;;;;;2.67;1.20;;;;;;;29.91;25.27;97131.53;4978506;28;20064;-36
2021/05/28 10:58:52;;;;;;;2.20;1.30;;;;;;;29.94;25.04;97131.31;4979484;28;20869;-39
2021/05/28 11:01:43;;;;;;;1.90;1.13;;;;;;;29.97;25.14;97131.13;4983055;28;20469;-33
2021/05/28 11:04:09;;;;;;;2.65;1.70;;;;;;;30.01;25.23;97136.22;4984718;28;20082;-35
2021/05/28 11:06:57;;;;;;;2.35;0.93;;;;;;;30.03;25.07;97129.00;4983881;28;20105;-37
2021/05/28 11:09:41;;;;;;;1.60;0.88;;;;;;;30.06;25.22;97131.47;4980097;28;20038;-31
2021/05/28 11:12:30;;;;;;;2.42;1.05;;;;;;;30.07;25.51;97130.50;4979639;28;20111;-36
2021/05/28 11:15:04;;;;;;;2.10;1.08;;;;;;;30.10;25.51;97125.03;4980720;28;20100;-36
2021/05/28 11:17:29;;;;;;;2.20;1.15;;;;;;;30.11;25.29;97135.50;4981511;28;20347;-37
2021/05/28 11:19:57;;;;;;;1.98;1.10;;;;;;;30.14;25.44;97131.84;4982372;28;20687;-41
2021/05/28 11:22:38;;;;;;;1.42;1.00;;;;;;;30.14;25.51;97126.56;4977448;28;20112;-37
2021/05/28 11:25:04;;;;;;;1.10;0.80;;;;;;;30.17;25.31;97130.78;4981161;28;20022;-41
2021/05/28 11:27:33;;;;;;;2.70;1.10;;;;;;;30.18;25.62;97130.69;4979190;28;20030;-36
2021/05/28 11:30:04;;;;;;;3.30;1.33;;;;;;;30.19;25.41;97123.59;4982287;28;20026;-37
2021/05/28 11:32:36;;;;;;;1.70;1.00;;;;;;;30.18;25.73;97117.47;4983721;28;20045;-35
2021/05/28 11:35:15;;;;;;;2.00;1.23;;;;;;;30.19;25.38;97113.03;4983079;28;20050;-37